createdAt,value
2022-09-05T00:02:36.108Z,42.59
2022-09-05T00:05:38.486Z,42.73
2022-09-05T00:08:44.224Z,42.86
2022-09-05T00:11:44.111Z,42.92
2022-09-05T00:15:18.450Z,42.83
2022-09-05T00:21:38.104Z,43.25
2022-09-05T00:24:26.771Z,43.59
2022-09-05T00:25:31.694Z,43.75
2022-09-05T00:28:31.469Z,43.77
2022-09-05T00:31:54.898Z,43.92
2022-09-05T00:35:03.815Z,43.99
2022-09-05T00:37:54.400Z,43.96
2022-09-05T00:40:47.107Z,44.18
2022-09-05T00:43:39.321Z,44.32
2022-09-05T00:46:32.900Z,44.27
2022-09-05T00:49:28.677Z,44.34
2022-09-05T00:52:25.601Z,44.44
2022-09-05T00:55:24.473Z,44.83
2022-09-05T00:58:38.422Z,44.83
2022-09-05T01:01:39.820Z,44.82
2022-09-05T01:04:41.783Z,45.09
2022-09-05T01:07:46.653Z,45.06
2022-09-05T01:10:47.545Z,45.22
2022-09-05T01:13:48.436Z,45.26
2022-09-05T01:16:49.339Z,45.52
2022-09-05T01:19:57.309Z,45.53
2022-09-05T01:23:13.024Z,45.86
2022-09-05T01:26:22.897Z,45.82
2022-09-05T01:29:25.660Z,45.83
2022-09-05T01:32:31.200Z,45.83
2022-09-05T01:35:59.199Z,45.92
2022-09-05T01:40:15.329Z,46.08
2022-09-05T01:42:31.711Z,46.12
2022-09-05T01:45:35.712Z,46.17
2022-09-05T01:48:35.447Z,46.10
2022-09-05T01:51:36.173Z,46.28
2022-09-05T01:54:38.823Z,46.12
2022-09-05T01:57:38.949Z,46.28
2022-09-05T02:00:39.165Z,46.44
2022-09-05T02:03:42.321Z,46.58
2022-09-05T02:06:55.391Z,46.51
2022-09-05T02:10:00.161Z,46.69
2022-09-05T02:13:03.517Z,46.71
2022-09-05T02:16:03.013Z,46.95
2022-09-05T02:19:01.376Z,46.93
2022-09-05T02:21:59.656Z,47.09
2022-09-05T02:24:58.521Z,47.27
2022-09-05T02:28:15.355Z,47.53
2022-09-05T02:31:19.907Z,47.66
2022-09-05T02:34:18.783Z,47.79
2022-09-05T02:37:16.466Z,47.83
2022-09-05T02:45:02.834Z,48.04
2022-09-05T02:45:05.998Z,48.30
2022-09-05T02:47:03.382Z,48.24
2022-09-05T02:51:08.255Z,48.51
2022-09-05T02:57:33.105Z,48.67
2022-09-05T02:57:35.917Z,48.70
2022-09-05T03:00:11.450Z,48.87
2022-09-05T03:03:16.862Z,48.88
2022-09-05T03:06:34.444Z,49.02
2022-09-05T03:09:38.354Z,49.30
2022-09-05T03:13:01.539Z,49.37
2022-09-05T03:16:33.636Z,49.37
2022-09-05T03:20:12.352Z,49.52
2022-09-05T03:23:36.586Z,49.65
2022-09-05T03:27:17.335Z,49.72
2022-09-05T03:30:13.276Z,50.06
2022-09-05T03:33:36.913Z,50.47
2022-09-05T03:37:11.207Z,50.42
2022-09-05T03:40:39.511Z,50.58
2022-09-05T03:44:14.650Z,50.76
2022-09-05T03:47:27.400Z,50.97
2022-09-05T03:56:20.857Z,51.20
2022-09-05T03:57:28.499Z,51.19
2022-09-05T03:58:16.445Z,51.28
2022-09-05T04:01:45.507Z,51.42
2022-09-05T04:08:18.632Z,51.39
2022-09-05T04:08:30.602Z,51.55
2022-09-05T04:11:02.947Z,51.65
2022-09-05T04:13:56.327Z,51.83
2022-09-05T04:16:55.597Z,51.78
2022-09-05T04:19:51.391Z,51.99
2022-09-05T04:23:07.207Z,51.84
2022-09-05T04:26:11.673Z,51.50
2022-09-05T04:29:15.268Z,51.07
2022-09-05T04:32:17.948Z,50.49
2022-09-05T04:35:23.459Z,49.07
2022-09-05T04:38:17.132Z,47.68
2022-09-05T04:41:10.340Z,46.46
2022-09-05T04:44:06.337Z,45.62
2022-09-05T04:47:01.903Z,44.83
2022-09-05T04:49:57.211Z,44.22
2022-09-05T04:53:02.105Z,43.58
2022-09-05T04:55:55.495Z,42.54
2022-09-05T05:00:13.002Z,41.83
2022-09-05T05:06:10.494Z,40.16
2022-09-05T05:06:16.465Z,39.18
2022-09-05T05:08:41.606Z,37.77
2022-09-05T05:17:12.905Z,37.02
2022-09-05T05:18:13.402Z,35.84
2022-09-05T05:18:39.606Z,34.78
2022-09-05T05:21:34.299Z,33.67
2022-09-05T05:24:28.996Z,32.62
2022-09-05T05:27:26.313Z,31.80
2022-09-05T05:30:28.562Z,31.04
2022-09-05T05:33:28.276Z,30.15
2022-09-05T05:36:23.644Z,29.69
2022-09-05T05:39:22.456Z,29.04
2022-09-05T05:42:20.648Z,28.22
2022-09-05T05:45:20.057Z,27.55
2022-09-05T05:48:31.385Z,26.60
2022-09-05T05:52:02.446Z,26.21
2022-09-05T05:55:09.799Z,26.03
2022-09-05T05:58:23.270Z,25.13
2022-09-05T06:04:55.191Z,23.80
2022-09-05T06:09:26.782Z,23.23
2022-09-05T06:14:58.263Z,22.78
2022-09-05T06:15:26.725Z,22.35
2022-09-05T06:18:51.924Z,22.24
2022-09-05T06:22:26.085Z,21.89
2022-09-05T06:25:53.272Z,21.40
2022-09-05T06:28:55.436Z,21.14
2022-09-05T06:32:02.389Z,20.94
2022-09-05T06:35:00.791Z,20.43
2022-09-05T06:38:05.035Z,20.42
2022-09-05T06:41:03.914Z,19.63
2022-09-05T06:44:26.133Z,19.59
2022-09-05T06:47:34.021Z,18.95
2022-09-05T06:50:28.313Z,18.28
2022-09-05T06:54:00.543Z,17.61
2022-09-05T06:57:16.518Z,17.35
2022-09-05T07:00:26.308Z,16.96
2022-09-05T07:03:35.608Z,16.42
2022-09-05T07:07:01.012Z,16.32
2022-09-05T07:09:57.505Z,16.02
2022-09-05T07:12:52.006Z,15.89
2022-09-05T07:15:52.029Z,15.86
2022-09-05T07:18:54.647Z,15.97
2022-09-05T07:21:53.091Z,15.92
2022-09-05T07:24:53.860Z,15.96
2022-09-05T07:28:29.249Z,15.84
2022-09-05T07:31:06.900Z,15.81
2022-09-05T07:34:20.692Z,15.26
2022-09-05T07:37:17.411Z,15.33
2022-09-05T07:40:26.172Z,15.21
2022-09-05T07:43:22.488Z,15.40
2022-09-05T07:46:15.998Z,15.42
2022-09-05T07:49:09.597Z,15.49
2022-09-05T07:56:49.196Z,15.22
2022-09-05T07:57:09.216Z,15.19
2022-09-05T07:58:41.456Z,15.01
2022-09-05T08:01:32.963Z,14.96
2022-09-05T08:04:32.237Z,14.96
2022-09-05T08:07:49.591Z,14.51
2022-09-05T08:11:22.187Z,14.83
2022-09-05T08:14:27.046Z,14.99
2022-09-05T08:17:13.716Z,14.91
2022-09-05T08:20:17.801Z,15.20
2022-09-05T08:23:14.359Z,14.62
2022-09-05T08:26:11.035Z,15.00
2022-09-05T08:29:11.290Z,14.66
2022-09-05T08:32:08.664Z,14.60
2022-09-05T08:35:06.249Z,14.85
2022-09-05T08:37:58.088Z,13.87
2022-09-05T08:40:59.590Z,14.50
2022-09-05T08:46:37.623Z,14.65
2022-09-05T08:47:26.351Z,14.20
2022-09-05T08:50:36.052Z,14.99
2022-09-05T08:53:46.348Z,14.53
2022-09-05T08:56:46.780Z,14.81
2022-09-05T09:00:10.307Z,14.78
2022-09-05T09:03:07.685Z,15.16
2022-09-05T09:06:29.250Z,15.20
2022-09-05T09:09:28.829Z,15.00
2022-09-05T09:12:40.894Z,15.20
2022-09-05T09:15:38.577Z,15.07
2022-09-05T09:18:39.612Z,15.05
2022-09-05T09:21:35.438Z,15.08
2022-09-05T09:24:38.733Z,15.34
2022-09-05T09:28:49.043Z,14.35
2022-09-05T09:30:59.619Z,14.83
2022-09-05T09:33:59.050Z,15.05
2022-09-05T09:37:25.439Z,15.24
2022-09-05T09:40:52.409Z,15.18
2022-09-05T09:44:07.976Z,15.20
2022-09-05T09:46:57.625Z,14.30
2022-09-05T09:50:08.284Z,14.74
2022-09-05T09:53:15.318Z,14.93
2022-09-05T09:56:32.379Z,15.27
2022-09-05T09:59:54.071Z,15.05
2022-09-05T10:05:16.607Z,14.81
2022-09-05T10:10:55.124Z,14.99
2022-09-05T10:11:25.900Z,14.98
2022-09-05T10:13:49.231Z,14.92
2022-09-05T10:16:55.117Z,14.96
2022-09-05T10:20:11.269Z,14.66
2022-09-05T10:23:32.443Z,15.02
2022-09-05T10:26:57.795Z,15.13
2022-09-05T10:30:07.299Z,14.94
2022-09-05T10:35:15.252Z,15.30
2022-09-05T10:36:36.278Z,15.39
2022-09-05T10:39:30.382Z,15.40
2022-09-05T10:42:30.440Z,15.60
2022-09-05T10:45:38.075Z,15.65
2022-09-05T10:48:31.233Z,15.40
2022-09-05T10:51:29.657Z,15.97
2022-09-05T10:54:33.235Z,15.60
2022-09-05T10:57:36.716Z,15.94
2022-09-05T11:02:23.533Z,15.94
2022-09-05T11:04:16.948Z,16.11
2022-09-05T11:07:13.645Z,16.22
2022-09-05T11:10:12.296Z,16.41
2022-09-05T11:13:12.571Z,16.79
2022-09-05T11:16:16.050Z,17.03
2022-09-05T11:19:07.467Z,16.73
2022-09-05T11:22:19.858Z,16.68
2022-09-05T11:25:36.284Z,17.00
2022-09-05T11:28:39.831Z,17.58
2022-09-05T11:36:27.596Z,17.75
2022-09-05T11:39:48.515Z,17.57
2022-09-05T11:40:04.117Z,17.80
2022-09-05T11:42:50.581Z,18.00
2022-09-05T11:45:55.876Z,18.03
2022-09-05T11:49:08.970Z,18.41
2022-09-05T11:52:21.304Z,18.74
2022-09-05T11:55:37.962Z,18.69
2022-09-05T11:58:48.495Z,18.79
2022-09-05T12:01:51.674Z,19.21
2022-09-05T12:05:47.556Z,18.94
2022-09-05T12:08:10.455Z,19.24
2022-09-05T12:11:18.139Z,19.34
2022-09-05T12:14:27.485Z,19.65
2022-09-05T12:17:35.516Z,20.17
2022-09-05T12:20:43.509Z,19.99
2022-09-05T12:24:40.770Z,19.76
2022-09-05T12:27:43.885Z,20.05
2022-09-05T12:30:36.335Z,19.65
2022-09-05T12:36:07.079Z,20.19
2022-09-05T12:40:40.364Z,20.30
2022-09-05T12:41:35.632Z,20.52
2022-09-05T12:44:36.599Z,20.36
2022-09-05T12:46:47.168Z,20.36
2022-09-05T12:49:51.891Z,19.91
2022-09-05T12:52:46.596Z,19.80
2022-09-05T12:55:41.908Z,20.09
2022-09-05T13:02:58.936Z,20.47
2022-09-05T13:03:02.752Z,21.11
2022-09-05T13:05:15.332Z,20.99
2022-09-05T13:08:05.875Z,21.13
2022-09-05T13:13:22.868Z,21.40
2022-09-05T13:14:58.323Z,21.59
2022-09-05T13:17:44.216Z,21.65
2022-09-05T13:20:36.802Z,21.48
2022-09-05T13:23:30.373Z,21.68
2022-09-05T13:26:25.508Z,21.86
2022-09-05T13:29:19.521Z,22.00
2022-09-05T13:38:08.309Z,22.11
2022-09-05T13:38:13.700Z,22.06
2022-09-05T13:38:50.275Z,21.86
2022-09-05T13:41:48.930Z,22.53
2022-09-05T13:44:46.591Z,22.68
2022-09-05T13:47:58.616Z,23.40
2022-09-05T13:50:53.007Z,23.59
2022-09-05T13:53:52.105Z,23.24
2022-09-05T13:56:53.969Z,23.62
2022-09-05T14:00:04.863Z,24.20
2022-09-05T14:03:39.425Z,24.41
2022-09-05T14:06:48.772Z,24.64
2022-09-05T14:10:03.171Z,24.99
2022-09-05T14:13:02.444Z,24.67
2022-09-05T14:15:59.145Z,25.00
2022-09-05T14:19:09.340Z,25.71
2022-09-05T14:22:02.430Z,26.04
2022-09-05T14:24:56.114Z,26.03
2022-09-05T14:27:50.859Z,26.36
2022-09-05T14:33:01.019Z,25.51
2022-09-05T14:37:42.354Z,25.41
2022-09-05T14:37:52.207Z,25.64
2022-09-05T14:40:32.233Z,26.77
2022-09-05T14:43:30.961Z,26.96
2022-09-05T14:46:21.201Z,27.03
2022-09-05T14:49:20.399Z,27.30
2022-09-05T14:51:55.447Z,27.77
2022-09-05T15:02:42.619Z,27.43
2022-09-05T15:03:00.862Z,27.62
2022-09-05T15:03:15.234Z,27.12
2022-09-05T15:05:51.576Z,28.16
2022-09-05T15:09:53.639Z,28.70
2022-09-05T15:12:27.931Z,28.86
2022-09-05T15:14:29.314Z,29.28
2022-09-05T15:17:05.816Z,29.66
2022-09-05T15:20:06.560Z,29.99
2022-09-05T15:22:42.054Z,29.56
2022-09-05T15:25:21.480Z,29.96
2022-09-05T15:27:54.545Z,29.48
2022-09-05T15:30:35.772Z,29.13
2022-09-05T15:33:25.784Z,28.64
2022-09-05T15:35:59.542Z,29.56
2022-09-05T15:38:54.950Z,29.35
2022-09-05T15:41:29.175Z,29.02
2022-09-05T15:44:09.711Z,29.94
2022-09-05T15:46:48.412Z,30.42
2022-09-05T15:49:33.005Z,30.26
2022-09-05T15:52:10.508Z,30.30
2022-09-05T15:54:50.521Z,29.75
2022-09-05T15:57:26.738Z,29.66
2022-09-05T16:00:02.413Z,30.16
2022-09-05T16:02:39.192Z,30.34
2022-09-05T16:10:34.563Z,30.77
2022-09-05T16:10:46.084Z,30.84
2022-09-05T16:14:39.566Z,31.14
2022-09-05T16:23:18.081Z,30.82
2022-09-05T16:23:30.904Z,30.35
2022-09-05T16:23:39.708Z,31.27
2022-09-05T16:26:25.058Z,31.93
2022-09-05T16:29:02.669Z,31.63
2022-09-05T16:31:41.110Z,31.47
2022-09-05T16:34:21.722Z,31.53
2022-09-05T16:37:07.919Z,31.64
2022-09-05T16:39:48.344Z,32.37
2022-09-05T16:42:46.233Z,31.65
2022-09-05T16:45:29.306Z,32.05
2022-09-05T16:48:15.257Z,32.15
2022-09-05T16:50:52.878Z,31.95
2022-09-05T16:53:34.152Z,32.37
2022-09-05T16:56:13.250Z,32.43
2022-09-05T16:58:49.443Z,32.38
2022-09-05T17:01:43.763Z,32.53
2022-09-05T17:04:20.897Z,32.94
2022-09-05T17:06:58.631Z,32.79
2022-09-05T17:09:43.412Z,32.78
2022-09-05T17:12:22.215Z,32.90
2022-09-05T17:14:57.528Z,32.92
2022-09-05T17:18:18.610Z,33.00
2022-09-05T17:20:29.933Z,33.35
2022-09-05T17:26:29.200Z,33.50
2022-09-05T17:29:25.040Z,33.91
2022-09-05T17:29:28.738Z,33.73
2022-09-05T17:32:06.069Z,34.51
2022-09-05T17:35:17.085Z,34.89
2022-09-05T17:38:15.841Z,35.23
2022-09-05T17:41:02.710Z,35.59
2022-09-05T17:43:38.737Z,35.56
2022-09-05T17:46:23.280Z,35.79
2022-09-05T17:49:19.874Z,36.05
2022-09-05T17:52:24.385Z,35.95
2022-09-05T17:54:57.694Z,35.63
2022-09-05T17:57:39.332Z,35.74
2022-09-05T18:00:48.947Z,36.29
2022-09-05T18:04:16.210Z,36.53
2022-09-05T18:07:00.346Z,36.41
2022-09-05T18:10:03.521Z,36.65
2022-09-05T18:13:13.766Z,36.61
2022-09-05T18:16:12.449Z,36.89
2022-09-05T18:19:28.266Z,36.80
2022-09-05T18:21:53.048Z,37.34
2022-09-05T18:24:33.200Z,37.67
2022-09-05T18:30:28.395Z,37.80
2022-09-05T18:33:53.594Z,37.81
2022-09-05T18:36:34.924Z,38.18
2022-09-05T18:39:37.783Z,38.27
2022-09-05T18:42:33.208Z,38.50
2022-09-05T18:45:14.613Z,38.60
2022-09-05T18:48:03.430Z,38.77
2022-09-05T18:50:43.595Z,39.03
2022-09-05T18:53:26.352Z,39.19
2022-09-05T18:56:13.401Z,39.43
2022-09-05T18:59:10.377Z,39.53
2022-09-05T19:01:52.039Z,39.44
2022-09-05T19:04:39.520Z,39.73
2022-09-05T19:07:18.456Z,39.65
2022-09-05T19:10:34.397Z,39.82
2022-09-05T19:13:05.339Z,40.03
2022-09-05T19:15:48.076Z,40.07
2022-09-05T19:18:26.387Z,40.51
2022-09-05T19:21:11.915Z,40.56
2022-09-05T19:23:50.494Z,40.67
2022-09-05T19:26:23.974Z,40.48
2022-09-05T19:36:45.805Z,40.70
2022-09-05T19:36:49.131Z,40.71
2022-09-05T19:37:23.736Z,40.79
2022-09-05T19:37:50.195Z,40.95
2022-09-05T19:47:25.442Z,40.74
2022-09-05T19:47:41.666Z,40.78
2022-09-05T19:47:48.849Z,40.96
2022-09-05T19:49:13.271Z,41.07
2022-09-05T19:51:46.767Z,41.05
2022-09-05T19:54:29.459Z,41.11
2022-09-05T19:57:04.253Z,40.96
2022-09-05T19:59:39.296Z,40.93
2022-09-05T20:02:20.203Z,41.35
2022-09-05T20:04:55.524Z,41.45
2022-09-05T20:07:29.382Z,41.45
2022-09-05T20:10:04.004Z,41.53
2022-09-05T20:12:38.676Z,41.53
2022-09-05T20:15:27.940Z,41.39
2022-09-05T20:18:23.487Z,41.32
2022-09-05T20:20:56.935Z,41.47
2022-09-05T20:23:31.444Z,41.33
2022-09-05T20:26:04.360Z,41.32
2022-09-05T20:28:38.083Z,41.29
2022-09-05T20:31:16.229Z,41.17
2022-09-05T20:33:52.151Z,41.27
2022-09-05T20:40:32.393Z,41.47
2022-09-05T20:43:20.297Z,41.76
2022-09-05T20:43:22.840Z,41.61
2022-09-05T20:45:48.458Z,41.86
2022-09-05T20:54:12.870Z,41.86
2022-09-05T20:54:28.650Z,41.85
2022-09-05T20:54:41.202Z,41.86
2022-09-05T20:57:19.421Z,41.87
2022-09-05T20:59:51.598Z,41.92
2022-09-05T21:02:26.608Z,41.95
2022-09-05T21:05:06.969Z,41.99
2022-09-05T21:08:07.145Z,42.03
2022-09-05T21:10:55.706Z,42.01
2022-09-05T21:13:30.536Z,42.40
2022-09-05T21:16:04.407Z,42.30
2022-09-05T21:18:42.150Z,42.27
2022-09-05T21:21:28.903Z,42.30
2022-09-05T21:24:16.308Z,42.29
2022-09-05T21:26:50.398Z,42.22
2022-09-05T21:29:32.913Z,42.15
2022-09-05T21:32:10.658Z,42.20
2022-09-05T21:34:48.435Z,42.33
2022-09-05T21:37:21.663Z,42.43
2022-09-05T21:40:00.481Z,42.54
2022-09-05T21:42:51.769Z,42.62
2022-09-05T21:47:42.894Z,42.85
2022-09-05T21:48:18.460Z,42.97
2022-09-05T21:50:52.727Z,42.97
2022-09-05T21:56:17.646Z,43.11
2022-09-05T21:59:32.587Z,43.17
2022-09-05T21:59:36.649Z,43.35
2022-09-05T22:02:10.619Z,43.33
2022-09-05T22:04:42.500Z,43.37
2022-09-05T22:07:31.695Z,43.38
2022-09-05T22:10:07.794Z,43.29
2022-09-05T22:12:40.365Z,43.47
2022-09-05T22:15:27.328Z,43.40
2022-09-05T22:18:16.418Z,43.44
2022-09-05T22:21:32.269Z,43.56
2022-09-05T22:23:50.189Z,43.53
2022-09-05T22:26:23.065Z,43.51
2022-09-05T22:28:56.023Z,43.50
2022-09-05T22:31:28.378Z,43.31
2022-09-05T22:34:00.445Z,43.16
2022-09-05T22:36:32.869Z,43.07
2022-09-05T22:39:05.302Z,42.94
2022-09-05T22:41:37.201Z,42.70
2022-09-05T22:44:09.032Z,42.59
2022-09-05T22:46:40.924Z,42.50
2022-09-05T22:49:12.959Z,42.51
2022-09-05T22:51:44.831Z,42.37
2022-09-05T22:54:17.269Z,42.25
2022-09-05T22:56:49.890Z,42.28
2022-09-05T22:59:21.711Z,42.28
2022-09-05T23:01:54.095Z,42.31
2022-09-05T23:04:26.334Z,42.13
2022-09-05T23:07:02.075Z,42.20
2022-09-05T23:09:35.356Z,42.43
2022-09-05T23:12:08.093Z,42.39
2022-09-05T23:14:39.909Z,42.41
2022-09-05T23:17:13.893Z,42.73
2022-09-05T23:19:45.745Z,42.64
2022-09-05T23:22:17.795Z,42.77
2022-09-05T23:24:49.905Z,42.88
2022-09-05T23:27:21.816Z,43.08
2022-09-05T23:29:53.667Z,43.28
2022-09-05T23:32:25.466Z,43.51
2022-09-05T23:34:57.258Z,43.70
2022-09-05T23:37:29.380Z,43.84
2022-09-05T23:40:01.275Z,43.90
2022-09-05T23:42:33.286Z,44.07
2022-09-05T23:45:06.057Z,44.36
2022-09-05T23:47:39.018Z,44.24
2022-09-05T23:50:13.078Z,44.46
2022-09-05T23:52:46.227Z,44.40
2022-09-05T23:55:19.888Z,44.48
2022-09-05T23:57:57.257Z,44.60
